sensor_id;sensor_type;location;lat;lon;timestamp;temperature;humidity
67186;HTU21D;54116;53.518;49.398;2023-03-19T00:01:59;-1.46;114.95
67186;HTU21D;54116;53.518;49.398;2023-03-19T00:04:25;-1.45;114.63
67186;HTU21D;54116;53.518;49.398;2023-03-19T00:06:52;-1.48;110.42
67186;HTU21D;54116;53.518;49.398;2023-03-19T00:09:19;-1.45;115.24
67186;HTU21D;54116;53.518;49.398;2023-03-19T00:11:47;-1.46;114.47
67186;HTU21D;54116;53.518;49.398;2023-03-19T00:14:14;-1.49;112.78
67186;HTU21D;54116;53.518;49.398;2023-03-19T00:16:41;-1.52;113.90
67186;HTU21D;54116;53.518;49.398;2023-03-19T00:19:07;-1.52;111.39
67186;HTU21D;54116;53.518;49.398;2023-03-19T00:21:33;-1.52;113.45
67186;HTU21D;54116;53.518;49.398;2023-03-19T00:23:59;-1.54;113.91
67186;HTU21D;54116;53.518;49.398;2023-03-19T00:26:28;-1.52;113.42
67186;HTU21D;54116;53.518;49.398;2023-03-19T00:28:56;-1.52;114.61
67186;HTU21D;54116;53.518;49.398;2023-03-19T00:31:22;-1.55;114.78
67186;HTU21D;54116;53.518;49.398;2023-03-19T00:33:49;-1.58;114.67
67186;HTU21D;54116;53.518;49.398;2023-03-19T00:36:15;-1.58;114.01
67186;HTU21D;54116;53.518;49.398;2023-03-19T00:38:42;-1.60;113.37
67186;HTU21D;54116;53.518;49.398;2023-03-19T00:41:08;-1.59;113.45
67186;HTU21D;54116;53.518;49.398;2023-03-19T00:43:35;-1.62;113.12
67186;HTU21D;54116;53.518;49.398;2023-03-19T00:46:03;-1.62;113.38
67186;HTU21D;54116;53.518;49.398;2023-03-19T00:48:29;-1.68;111.02
67186;HTU21D;54116;53.518;49.398;2023-03-19T00:51:08;-1.65;111.15
67186;HTU21D;54116;53.518;49.398;2023-03-19T00:53:39;-1.63;113.23
67186;HTU21D;54116;53.518;49.398;2023-03-19T00:56:08;-1.67;112.39
67186;HTU21D;54116;53.518;49.398;2023-03-19T00:58:34;-1.69;107.93
67186;HTU21D;54116;53.518;49.398;2023-03-19T01:01:00;-1.67;111.69
67186;HTU21D;54116;53.518;49.398;2023-03-19T01:03:27;-1.70;112.59
67186;HTU21D;54116;53.518;49.398;2023-03-19T01:05:53;-1.70;112.97
67186;HTU21D;54116;53.518;49.398;2023-03-19T01:08:19;-1.71;113.24
67186;HTU21D;54116;53.518;49.398;2023-03-19T01:10:46;-1.74;109.22
67186;HTU21D;54116;53.518;49.398;2023-03-19T01:13:13;-1.76;113.01
67186;HTU21D;54116;53.518;49.398;2023-03-19T01:15:41;-1.79;112.09
67186;HTU21D;54116;53.518;49.398;2023-03-19T01:18:09;-1.82;110.81
67186;HTU21D;54116;53.518;49.398;2023-03-19T01:20:38;-1.82;110.85
67186;HTU21D;54116;53.518;49.398;2023-03-19T01:23:04;-1.83;112.32
67186;HTU21D;54116;53.518;49.398;2023-03-19T01:25:32;-1.83;112.93
67186;HTU21D;54116;53.518;49.398;2023-03-19T01:27:58;-1.86;109.53
67186;HTU21D;54116;53.518;49.398;2023-03-19T01:30:24;-1.88;111.03
67186;HTU21D;54116;53.518;49.398;2023-03-19T01:32:51;-1.88;110.49
67186;HTU21D;54116;53.518;49.398;2023-03-19T01:35:17;-1.90;111.86
67186;HTU21D;54116;53.518;49.398;2023-03-19T01:37:44;-1.91;111.21
67186;HTU21D;54116;53.518;49.398;2023-03-19T01:40:12;-1.93;109.51
67186;HTU21D;54116;53.518;49.398;2023-03-19T01:45:31;-1.95;109.16
67186;HTU21D;54116;53.518;49.398;2023-03-19T01:47:59;-1.98;111.04
67186;HTU21D;54116;53.518;49.398;2023-03-19T01:50:33;-2.01;106.43
67186;HTU21D;54116;53.518;49.398;2023-03-19T01:53:03;-2.01;109.77
67186;HTU21D;54116;53.518;49.398;2023-03-19T01:55:30;-2.01;109.91
67186;HTU21D;54116;53.518;49.398;2023-03-19T01:57:56;-2.05;111.17
67186;HTU21D;54116;53.518;49.398;2023-03-19T02:00:22;-2.06;107.96
67186;HTU21D;54116;53.518;49.398;2023-03-19T02:02:52;-2.06;106.55
67186;HTU21D;54116;53.518;49.398;2023-03-19T02:05:19;-2.07;110.23
67186;HTU21D;54116;53.518;49.398;2023-03-19T02:07:52;-2.06;109.75
67186;HTU21D;54116;53.518;49.398;2023-03-19T02:10:20;-2.07;101.12
67186;HTU21D;54116;53.518;49.398;2023-03-19T02:12:47;-2.06;108.16
67186;HTU21D;54116;53.518;49.398;2023-03-19T02:15:14;-2.05;110.62
67186;HTU21D;54116;53.518;49.398;2023-03-19T02:17:41;-2.07;110.23
67186;HTU21D;54116;53.518;49.398;2023-03-19T02:20:23;-2.07;110.26
67186;HTU21D;54116;53.518;49.398;2023-03-19T02:28:30;-2.07;109.72
67186;HTU21D;54116;53.518;49.398;2023-03-19T02:30:58;-2.04;110.30
67186;HTU21D;54116;53.518;49.398;2023-03-19T02:33:25;-2.05;108.42
67186;HTU21D;54116;53.518;49.398;2023-03-19T02:35:52;-2.05;109.17
67186;HTU21D;54116;53.518;49.398;2023-03-19T02:38:19;-2.04;107.31
67186;HTU21D;54116;53.518;49.398;2023-03-19T02:40:51;-2.03;103.74
67186;HTU21D;54116;53.518;49.398;2023-03-19T02:43:20;-2.00;108.49
67186;HTU21D;54116;53.518;49.398;2023-03-19T02:45:47;-1.95;109.07
67186;HTU21D;54116;53.518;49.398;2023-03-19T02:48:13;-1.94;109.80
67186;HTU21D;54116;53.518;49.398;2023-03-19T02:50:40;-1.95;105.39
67186;HTU21D;54116;53.518;49.398;2023-03-19T02:53:06;-1.95;103.62
67186;HTU21D;54116;53.518;49.398;2023-03-19T02:55:33;-1.93;107.99
67186;HTU21D;54116;53.518;49.398;2023-03-19T02:57:59;-1.91;106.01
67186;HTU21D;54116;53.518;49.398;2023-03-19T03:00:25;-1.92;107.93
67186;HTU21D;54116;53.518;49.398;2023-03-19T03:02:55;-1.90;108.81
67186;HTU21D;54116;53.518;49.398;2023-03-19T03:05:22;-1.91;102.02
67186;HTU21D;54116;53.518;49.398;2023-03-19T03:07:48;-1.92;98.80
67186;HTU21D;54116;53.518;49.398;2023-03-19T03:10:15;-1.92;101.15
67186;HTU21D;54116;53.518;49.398;2023-03-19T03:12:41;-1.88;108.82
67186;HTU21D;54116;53.518;49.398;2023-03-19T03:15:08;-1.90;107.35
67186;HTU21D;54116;53.518;49.398;2023-03-19T03:17:39;-1.86;110.52
67186;HTU21D;54116;53.518;49.398;2023-03-19T03:20:07;-1.84;106.45
67186;HTU21D;54116;53.518;49.398;2023-03-19T03:22:34;-1.84;109.33
67186;HTU21D;54116;53.518;49.398;2023-03-19T03:25:00;-1.82;108.87
67186;HTU21D;54116;53.518;49.398;2023-03-19T03:27:27;-1.80;105.38
67186;HTU21D;54116;53.518;49.398;2023-03-19T03:29:53;-1.77;108.36
67186;HTU21D;54116;53.518;49.398;2023-03-19T03:32:19;-1.80;101.56
67186;HTU21D;54116;53.518;49.398;2023-03-19T03:34:45;-1.78;106.03
67186;HTU21D;54116;53.518;49.398;2023-03-19T03:37:12;-1.77;107.04
67186;HTU21D;54116;53.518;49.398;2023-03-19T03:39:38;-1.76;105.11
67186;HTU21D;54116;53.518;49.398;2023-03-19T03:42:06;-1.74;108.04
67186;HTU21D;54116;53.518;49.398;2023-03-19T03:44:32;-1.71;108.05
67186;HTU21D;54116;53.518;49.398;2023-03-19T03:46:59;-1.72;102.99
67186;HTU21D;54116;53.518;49.398;2023-03-19T03:49:26;-1.69;105.82
67186;HTU21D;54116;53.518;49.398;2023-03-19T03:51:53;-1.68;107.89
67186;HTU21D;54116;53.518;49.398;2023-03-19T03:54:19;-1.69;101.15
67186;HTU21D;54116;53.518;49.398;2023-03-19T03:56:46;-1.69;105.07
67186;HTU21D;54116;53.518;49.398;2023-03-19T03:59:12;-1.68;106.43
67186;HTU21D;54116;53.518;49.398;2023-03-19T04:01:38;-1.67;104.99
67186;HTU21D;54116;53.518;49.398;2023-03-19T04:04:05;-1.64;100.15
67186;HTU21D;54116;53.518;49.398;2023-03-19T04:06:31;-1.63;100.49
67186;HTU21D;54116;53.518;49.398;2023-03-19T04:08:57;-1.70;101.23
67186;HTU21D;54116;53.518;49.398;2023-03-19T04:11:23;-1.72;97.35
67186;HTU21D;54116;53.518;49.398;2023-03-19T04:13:49;-1.68;99.19
67186;HTU21D;54116;53.518;49.398;2023-03-19T04:16:16;-1.62;98.85
67186;HTU21D;54116;53.518;49.398;2023-03-19T04:18:42;-1.58;100.39
67186;HTU21D;54116;53.518;49.398;2023-03-19T04:21:08;-1.48;96.89
67186;HTU21D;54116;53.518;49.398;2023-03-19T04:23:35;-1.45;92.67
67186;HTU21D;54116;53.518;49.398;2023-03-19T04:26:04;-1.39;93.30
67186;HTU21D;54116;53.518;49.398;2023-03-19T04:28:30;-1.46;92.64
67186;HTU21D;54116;53.518;49.398;2023-03-19T04:31:01;-1.41;98.00
67186;HTU21D;54116;53.518;49.398;2023-03-19T04:33:28;-1.38;94.36
67186;HTU21D;54116;53.518;49.398;2023-03-19T04:35:55;-1.29;93.17
67186;HTU21D;54116;53.518;49.398;2023-03-19T04:38:22;-1.18;95.12
67186;HTU21D;54116;53.518;49.398;2023-03-19T04:40:51;-1.12;88.51
67186;HTU21D;54116;53.518;49.398;2023-03-19T04:43:18;-1.08;101.69
67186;HTU21D;54116;53.518;49.398;2023-03-19T04:45:44;-1.06;86.01
67186;HTU21D;54116;53.518;49.398;2023-03-19T04:48:11;-1.00;86.32
67186;HTU21D;54116;53.518;49.398;2023-03-19T04:50:37;-0.94;87.51
67186;HTU21D;54116;53.518;49.398;2023-03-19T04:53:05;-0.81;95.53
67186;HTU21D;54116;53.518;49.398;2023-03-19T04:55:31;-0.65;90.70
67186;HTU21D;54116;53.518;49.398;2023-03-19T04:57:57;-0.52;90.54
67186;HTU21D;54116;53.518;49.398;2023-03-19T05:00:24;-0.43;93.75
67186;HTU21D;54116;53.518;49.398;2023-03-19T05:02:51;-0.41;85.42
67186;HTU21D;54116;53.518;49.398;2023-03-19T05:05:17;-0.39;85.35
67186;HTU21D;54116;53.518;49.398;2023-03-19T05:07:43;-0.34;87.80
67186;HTU21D;54116;53.518;49.398;2023-03-19T05:10:10;-0.32;77.49
67186;HTU21D;54116;53.518;49.398;2023-03-19T05:12:36;-0.31;81.66
67186;HTU21D;54116;53.518;49.398;2023-03-19T05:15:03;-0.28;78.53
67186;HTU21D;54116;53.518;49.398;2023-03-19T05:17:31;-0.12;84.89
67186;HTU21D;54116;53.518;49.398;2023-03-19T05:19:57;0.06;82.40
67186;HTU21D;54116;53.518;49.398;2023-03-19T05:22:23;0.15;76.38
67186;HTU21D;54116;53.518;49.398;2023-03-19T05:24:49;0.36;78.62
67186;HTU21D;54116;53.518;49.398;2023-03-19T05:27:16;0.62;75.94
67186;HTU21D;54116;53.518;49.398;2023-03-19T05:29:42;0.72;75.67
67186;HTU21D;54116;53.518;49.398;2023-03-19T05:32:08;1.61;77.92
67186;HTU21D;54116;53.518;49.398;2023-03-19T05:34:35;1.36;71.90
67186;HTU21D;54116;53.518;49.398;2023-03-19T05:37:02;2.00;72.16
67186;HTU21D;54116;53.518;49.398;2023-03-19T05:39:28;2.42;75.11
67186;HTU21D;54116;53.518;49.398;2023-03-19T05:41:54;2.02;75.10
67186;HTU21D;54116;53.518;49.398;2023-03-19T05:44:21;1.65;73.56
67186;HTU21D;54116;53.518;49.398;2023-03-19T05:46:47;1.57;73.85
67186;HTU21D;54116;53.518;49.398;2023-03-19T05:49:14;1.41;85.64
67186;HTU21D;54116;53.518;49.398;2023-03-19T05:51:41;1.69;83.86
67186;HTU21D;54116;53.518;49.398;2023-03-19T05:54:07;1.80;75.58
67186;HTU21D;54116;53.518;49.398;2023-03-19T05:56:33;1.67;84.71
67186;HTU21D;54116;53.518;49.398;2023-03-19T05:59:00;1.57;75.38
67186;HTU21D;54116;53.518;49.398;2023-03-19T06:01:26;1.78;73.70
67186;HTU21D;54116;53.518;49.398;2023-03-19T06:03:53;1.98;70.81
67186;HTU21D;54116;53.518;49.398;2023-03-19T06:06:19;2.07;70.08
67186;HTU21D;54116;53.518;49.398;2023-03-19T06:08:45;2.46;78.82
67186;HTU21D;54116;53.518;49.398;2023-03-19T06:11:11;2.96;75.28
67186;HTU21D;54116;53.518;49.398;2023-03-19T06:13:38;3.34;66.78
67186;HTU21D;54116;53.518;49.398;2023-03-19T06:16:05;3.26;68.97
67186;HTU21D;54116;53.518;49.398;2023-03-19T06:18:32;2.89;79.14
67186;HTU21D;54116;53.518;49.398;2023-03-19T06:20:58;3.29;68.74
67186;HTU21D;54116;53.518;49.398;2023-03-19T06:23:24;4.06;77.75
67186;HTU21D;54116;53.518;49.398;2023-03-19T06:25:51;3.78;68.02
67186;HTU21D;54116;53.518;49.398;2023-03-19T06:28:17;4.03;80.78
67186;HTU21D;54116;53.518;49.398;2023-03-19T06:30:44;3.83;78.98
67186;HTU21D;54116;53.518;49.398;2023-03-19T06:33:10;3.65;68.09
67186;HTU21D;54116;53.518;49.398;2023-03-19T06:35:36;2.81;71.82
67186;HTU21D;54116;53.518;49.398;2023-03-19T06:38:03;1.98;78.61
67186;HTU21D;54116;53.518;49.398;2023-03-19T06:40:29;1.86;79.03
67186;HTU21D;54116;53.518;49.398;2023-03-19T06:42:55;1.69;80.63
67186;HTU21D;54116;53.518;49.398;2023-03-19T06:45:22;1.57;81.62
67186;HTU21D;54116;53.518;49.398;2023-03-19T06:47:48;1.41;82.91
67186;HTU21D;54116;53.518;49.398;2023-03-19T06:50:16;1.33;87.59
67186;HTU21D;54116;53.518;49.398;2023-03-19T06:52:43;1.29;81.40
67186;HTU21D;54116;53.518;49.398;2023-03-19T06:55:09;1.25;81.65
67186;HTU21D;54116;53.518;49.398;2023-03-19T06:57:37;1.16;82.97
67186;HTU21D;54116;53.518;49.398;2023-03-19T07:00:04;1.13;85.79
67186;HTU21D;54116;53.518;49.398;2023-03-19T07:02:31;1.19;83.92
67186;HTU21D;54116;53.518;49.398;2023-03-19T07:04:58;1.06;82.87
67186;HTU21D;54116;53.518;49.398;2023-03-19T07:07:24;1.07;84.84
67186;HTU21D;54116;53.518;49.398;2023-03-19T07:09:50;1.10;84.26
67186;HTU21D;54116;53.518;49.398;2023-03-19T07:12:17;1.13;80.32
67186;HTU21D;54116;53.518;49.398;2023-03-19T07:14:43;1.18;83.52
67186;HTU21D;54116;53.518;49.398;2023-03-19T07:17:09;1.56;86.35
67186;HTU21D;54116;53.518;49.398;2023-03-19T07:19:36;1.85;82.46
67186;HTU21D;54116;53.518;49.398;2023-03-19T07:22:02;2.01;78.20
67186;HTU21D;54116;53.518;49.398;2023-03-19T07:24:28;2.00;81.68
67186;HTU21D;54116;53.518;49.398;2023-03-19T07:26:55;2.24;87.70
67186;HTU21D;54116;53.518;49.398;2023-03-19T07:29:22;2.40;78.23
67186;HTU21D;54116;53.518;49.398;2023-03-19T07:31:48;2.42;80.52
67186;HTU21D;54116;53.518;49.398;2023-03-19T07:34:14;2.31;88.47
67186;HTU21D;54116;53.518;49.398;2023-03-19T07:36:40;2.31;80.62
67186;HTU21D;54116;53.518;49.398;2023-03-19T07:39:06;2.30;81.42
67186;HTU21D;54116;53.518;49.398;2023-03-19T07:41:33;2.44;85.26
67186;HTU21D;54116;53.518;49.398;2023-03-19T07:43:59;2.60;97.84
67186;HTU21D;54116;53.518;49.398;2023-03-19T07:46:25;2.43;79.30
67186;HTU21D;54116;53.518;49.398;2023-03-19T07:48:52;2.32;94.06
67186;HTU21D;54116;53.518;49.398;2023-03-19T07:51:18;2.05;79.86
67186;HTU21D;54116;53.518;49.398;2023-03-19T07:53:44;1.88;86.84
67186;HTU21D;54116;53.518;49.398;2023-03-19T07:56:11;2.14;86.07
67186;HTU21D;54116;53.518;49.398;2023-03-19T07:58:38;2.29;87.89
67186;HTU21D;54116;53.518;49.398;2023-03-19T08:01:04;2.15;87.54
67186;HTU21D;54116;53.518;49.398;2023-03-19T08:03:32;2.11;83.54
67186;HTU21D;54116;53.518;49.398;2023-03-19T08:05:58;2.26;89.91
67186;HTU21D;54116;53.518;49.398;2023-03-19T08:08:24;2.49;83.93
67186;HTU21D;54116;53.518;49.398;2023-03-19T08:10:53;2.79;92.09
67186;HTU21D;54116;53.518;49.398;2023-03-19T08:13:19;2.80;85.54
67186;HTU21D;54116;53.518;49.398;2023-03-19T08:15:46;2.98;88.04
67186;HTU21D;54116;53.518;49.398;2023-03-19T08:18:12;3.13;84.60
67186;HTU21D;54116;53.518;49.398;2023-03-19T08:20:38;3.11;80.29
67186;HTU21D;54116;53.518;49.398;2023-03-19T08:23:05;3.18;87.83
67186;HTU21D;54116;53.518;49.398;2023-03-19T08:25:31;3.11;84.93
67186;HTU21D;54116;53.518;49.398;2023-03-19T08:27:59;3.27;84.29
67186;HTU21D;54116;53.518;49.398;2023-03-19T08:30:25;3.35;86.75
67186;HTU21D;54116;53.518;49.398;2023-03-19T08:32:51;3.57;86.68
67186;HTU21D;54116;53.518;49.398;2023-03-19T08:35:18;3.73;91.24
67186;HTU21D;54116;53.518;49.398;2023-03-19T08:37:45;3.94;90.75
67186;HTU21D;54116;53.518;49.398;2023-03-19T08:40:11;4.02;86.94
67186;HTU21D;54116;53.518;49.398;2023-03-19T08:46:00;4.18;84.77
67186;HTU21D;54116;53.518;49.398;2023-03-19T08:48:27;4.23;89.04
67186;HTU21D;54116;53.518;49.398;2023-03-19T08:50:58;4.33;87.48
67186;HTU21D;54116;53.518;49.398;2023-03-19T08:53:25;4.38;84.03
67186;HTU21D;54116;53.518;49.398;2023-03-19T08:55:57;4.54;87.27
67186;HTU21D;54116;53.518;49.398;2023-03-19T08:58:24;4.64;86.41
67186;HTU21D;54116;53.518;49.398;2023-03-19T09:00:52;4.69;86.89
67186;HTU21D;54116;53.518;49.398;2023-03-19T09:03:19;4.64;84.41
67186;HTU21D;54116;53.518;49.398;2023-03-19T09:05:46;4.76;84.07
67186;HTU21D;54116;53.518;49.398;2023-03-19T09:08:12;4.63;82.12
67186;HTU21D;54116;53.518;49.398;2023-03-19T09:10:39;4.74;88.54
67186;HTU21D;54116;53.518;49.398;2023-03-19T09:13:05;4.81;79.29
67186;HTU21D;54116;53.518;49.398;2023-03-19T09:15:32;4.80;85.03
67186;HTU21D;54116;53.518;49.398;2023-03-19T09:17:58;4.66;80.17
67186;HTU21D;54116;53.518;49.398;2023-03-19T09:20:25;4.49;88.38
67186;HTU21D;54116;53.518;49.398;2023-03-19T09:22:51;4.47;81.12
67186;HTU21D;54116;53.518;49.398;2023-03-19T09:25:18;4.56;78.95
67186;HTU21D;54116;53.518;49.398;2023-03-19T09:27:44;4.65;77.73
67186;HTU21D;54116;53.518;49.398;2023-03-19T09:30:11;4.69;84.19
67186;HTU21D;54116;53.518;49.398;2023-03-19T09:32:37;5.05;81.52
67186;HTU21D;54116;53.518;49.398;2023-03-19T09:35:04;5.05;77.16
67186;HTU21D;54116;53.518;49.398;2023-03-19T09:37:30;4.78;77.50
67186;HTU21D;54116;53.518;49.398;2023-03-19T09:39:57;4.47;77.30
67186;HTU21D;54116;53.518;49.398;2023-03-19T09:45:13;3.90;79.53
67186;HTU21D;54116;53.518;49.398;2023-03-19T09:47:42;3.84;83.22
67186;HTU21D;54116;53.518;49.398;2023-03-19T09:50:12;3.85;80.06
67186;HTU21D;54116;53.518;49.398;2023-03-19T09:53:14;3.90;79.80
67186;HTU21D;54116;53.518;49.398;2023-03-19T09:55:47;3.99;82.05
67186;HTU21D;54116;53.518;49.398;2023-03-19T09:58:19;3.98;80.48
67186;HTU21D;54116;53.518;49.398;2023-03-19T10:00:49;3.88;78.17
67186;HTU21D;54116;53.518;49.398;2023-03-19T10:03:35;3.76;81.42
67186;HTU21D;54116;53.518;49.398;2023-03-19T10:06:25;3.86;79.60
67186;HTU21D;54116;53.518;49.398;2023-03-19T10:12:13;3.90;89.24
67186;HTU21D;54116;53.518;49.398;2023-03-19T10:15:20;4.00;81.94
67186;HTU21D;54116;53.518;49.398;2023-03-19T10:17:59;4.08;78.82
67186;HTU21D;54116;53.518;49.398;2023-03-19T10:20:54;4.13;85.85
67186;HTU21D;54116;53.518;49.398;2023-03-19T10:25:58;4.17;81.30
67186;HTU21D;54116;53.518;49.398;2023-03-19T10:28:27;4.27;81.86
67186;HTU21D;54116;53.518;49.398;2023-03-19T10:36:37;4.38;81.01
67186;HTU21D;54116;53.518;49.398;2023-03-19T10:39:04;4.52;76.44
67186;HTU21D;54116;53.518;49.398;2023-03-19T10:44:36;4.67;75.75
67186;HTU21D;54116;53.518;49.398;2023-03-19T10:47:13;4.58;76.73
67186;HTU21D;54116;53.518;49.398;2023-03-19T10:49:41;4.62;72.64
67186;HTU21D;54116;53.518;49.398;2023-03-19T10:52:18;4.67;76.21
67186;HTU21D;54116;53.518;49.398;2023-03-19T10:54:45;4.82;73.47
67186;HTU21D;54116;53.518;49.398;2023-03-19T10:57:26;4.79;72.89
67186;HTU21D;54116;53.518;49.398;2023-03-19T10:59:53;4.76;73.56
67186;HTU21D;54116;53.518;49.398;2023-03-19T11:02:22;5.01;75.28
67186;HTU21D;54116;53.518;49.398;2023-03-19T11:07:39;5.06;73.29
67186;HTU21D;54116;53.518;49.398;2023-03-19T11:10:14;5.19;71.79
67186;HTU21D;54116;53.518;49.398;2023-03-19T11:12:46;5.31;71.85
67186;HTU21D;54116;53.518;49.398;2023-03-19T11:15:20;5.38;72.45
67186;HTU21D;54116;53.518;49.398;2023-03-19T11:17:49;5.53;71.90
67186;HTU21D;54116;53.518;49.398;2023-03-19T11:20:33;5.51;73.00
67186;HTU21D;54116;53.518;49.398;2023-03-19T11:23:01;5.54;71.34
67186;HTU21D;54116;53.518;49.398;2023-03-19T11:25:34;5.52;69.73
67186;HTU21D;54116;53.518;49.398;2023-03-19T11:28:07;5.45;71.97
67186;HTU21D;54116;53.518;49.398;2023-03-19T11:31:14;5.46;70.46
67186;HTU21D;54116;53.518;49.398;2023-03-19T11:34:02;5.40;71.12
67186;HTU21D;54116;53.518;49.398;2023-03-19T11:39:24;5.40;70.73
67186;HTU21D;54116;53.518;49.398;2023-03-19T11:53:55;5.66;72.41
67186;HTU21D;54116;53.518;49.398;2023-03-19T11:56:42;5.62;71.82
67186;HTU21D;54116;53.518;49.398;2023-03-19T12:10:35;5.87;72.33
67186;HTU21D;54116;53.518;49.398;2023-03-19T12:17:05;5.86;72.98
67186;HTU21D;54116;53.518;49.398;2023-03-19T12:22:31;5.65;73.72
67186;HTU21D;54116;53.518;49.398;2023-03-19T12:33:55;5.37;76.33
67186;HTU21D;54116;53.518;49.398;2023-03-19T12:36:31;5.30;77.18
67186;HTU21D;54116;53.518;49.398;2023-03-19T12:39:09;5.20;78.17
67186;HTU21D;54116;53.518;49.398;2023-03-19T12:41:40;5.22;77.97
67186;HTU21D;54116;53.518;49.398;2023-03-19T12:57:58;4.98;81.49
67186;HTU21D;54116;53.518;49.398;2023-03-19T13:00:33;4.91;82.10
67186;HTU21D;54116;53.518;49.398;2023-03-19T13:03:03;4.81;82.03
67186;HTU21D;54116;53.518;49.398;2023-03-19T13:05:38;4.57;83.08
67186;HTU21D;54116;53.518;49.398;2023-03-19T13:10:51;4.24;87.12
67186;HTU21D;54116;53.518;49.398;2023-03-19T13:13:30;4.02;89.03
67186;HTU21D;54116;53.518;49.398;2023-03-19T13:16:11;3.87;91.64
67186;HTU21D;54116;53.518;49.398;2023-03-19T13:18:48;3.73;92.86
67186;HTU21D;54116;53.518;49.398;2023-03-19T13:21:25;3.52;94.58
67186;HTU21D;54116;53.518;49.398;2023-03-19T13:24:19;3.38;95.97
67186;HTU21D;54116;53.518;49.398;2023-03-19T13:26:48;3.36;97.10
67186;HTU21D;54116;53.518;49.398;2023-03-19T13:29:22;3.33;96.75
67186;HTU21D;54116;53.518;49.398;2023-03-19T13:31:49;3.38;97.03
67186;HTU21D;54116;53.518;49.398;2023-03-19T13:34:21;3.43;98.23
67186;HTU21D;54116;53.518;49.398;2023-03-19T13:39:36;3.45;97.31
67186;HTU21D;54116;53.518;49.398;2023-03-19T13:52:45;2.98;102.35
67186;HTU21D;54116;53.518;49.398;2023-03-19T13:57:54;2.94;102.06
67186;HTU21D;54116;53.518;49.398;2023-03-19T14:03:23;2.91;103.15
67186;HTU21D;54116;53.518;49.398;2023-03-19T14:05:52;2.84;104.05
67186;HTU21D;54116;53.518;49.398;2023-03-19T14:08:32;2.83;104.78
67186;HTU21D;54116;53.518;49.398;2023-03-19T14:11:00;2.87;104.09
67186;HTU21D;54116;53.518;49.398;2023-03-19T14:13:37;2.83;104.84
67186;HTU21D;54116;53.518;49.398;2023-03-19T14:16:35;2.80;105.40
67186;HTU21D;54116;53.518;49.398;2023-03-19T14:19:03;2.76;105.78
67186;HTU21D;54116;53.518;49.398;2023-03-19T14:21:39;2.76;105.50
67186;HTU21D;54116;53.518;49.398;2023-03-19T14:26:59;2.73;106.51
67186;HTU21D;54116;53.518;49.398;2023-03-19T14:29:27;2.71;106.69
67186;HTU21D;54116;53.518;49.398;2023-03-19T14:31:56;2.68;107.25
67186;HTU21D;54116;53.518;49.398;2023-03-19T14:34:41;2.69;107.78
67186;HTU21D;54116;53.518;49.398;2023-03-19T14:37:24;2.66;108.28
67186;HTU21D;54116;53.518;49.398;2023-03-19T14:42:34;2.59;108.37
67186;HTU21D;54116;53.518;49.398;2023-03-19T14:50:39;2.56;109.44
67186;HTU21D;54116;53.518;49.398;2023-03-19T14:55:42;2.53;109.42
67186;HTU21D;54116;53.518;49.398;2023-03-19T14:58:13;2.52;109.30
67186;HTU21D;54116;53.518;49.398;2023-03-19T15:00:42;2.53;109.88
67186;HTU21D;54116;53.518;49.398;2023-03-19T15:03:30;2.49;110.07
67186;HTU21D;54116;53.518;49.398;2023-03-19T15:05:59;2.49;109.99
67186;HTU21D;54116;53.518;49.398;2023-03-19T15:08:29;2.47;111.13
67186;HTU21D;54116;53.518;49.398;2023-03-19T15:11:01;2.47;109.71
67186;HTU21D;54116;53.518;49.398;2023-03-19T15:19:01;2.37;110.49
67186;HTU21D;54116;53.518;49.398;2023-03-19T15:21:31;2.36;110.02
67186;HTU21D;54116;53.518;49.398;2023-03-19T15:23:57;2.34;110.36
67186;HTU21D;54116;53.518;49.398;2023-03-19T15:26:32;2.32;110.61
67186;HTU21D;54116;53.518;49.398;2023-03-19T15:28:59;2.28;110.37
67186;HTU21D;54116;53.518;49.398;2023-03-19T15:31:48;2.26;110.60
67186;HTU21D;54116;53.518;49.398;2023-03-19T15:34:18;2.23;110.74
67186;HTU21D;54116;53.518;49.398;2023-03-19T15:36:44;2.22;110.94
67186;HTU21D;54116;53.518;49.398;2023-03-19T15:39:12;2.21;111.07
67186;HTU21D;54116;53.518;49.398;2023-03-19T15:41:45;2.20;111.25
67186;HTU21D;54116;53.518;49.398;2023-03-19T15:44:17;2.17;111.40
67186;HTU21D;54116;53.518;49.398;2023-03-19T15:46:46;2.16;111.38
67186;HTU21D;54116;53.518;49.398;2023-03-19T15:49:27;2.15;111.74
67186;HTU21D;54116;53.518;49.398;2023-03-19T15:51:58;2.15;111.61
67186;HTU21D;54116;53.518;49.398;2023-03-19T15:54:27;2.14;111.61
67186;HTU21D;54116;53.518;49.398;2023-03-19T15:56:55;2.14;112.14
67186;HTU21D;54116;53.518;49.398;2023-03-19T15:59:22;2.12;111.55
67186;HTU21D;54116;53.518;49.398;2023-03-19T16:01:51;2.12;111.45
67186;HTU21D;54116;53.518;49.398;2023-03-19T16:04:23;2.13;111.38
67186;HTU21D;54116;53.518;49.398;2023-03-19T16:06:52;2.13;111.07
67186;HTU21D;54116;53.518;49.398;2023-03-19T16:11:55;2.13;111.36
67186;HTU21D;54116;53.518;49.398;2023-03-19T16:14:24;2.12;111.30
67186;HTU21D;54116;53.518;49.398;2023-03-19T16:16:58;2.12;111.25
67186;HTU21D;54116;53.518;49.398;2023-03-19T16:19:33;2.14;111.28
67186;HTU21D;54116;53.518;49.398;2023-03-19T16:22:01;2.17;110.91
67186;HTU21D;54116;53.518;49.398;2023-03-19T16:24:36;2.16;110.92
67186;HTU21D;54116;53.518;49.398;2023-03-19T16:27:16;2.17;110.63
67186;HTU21D;54116;53.518;49.398;2023-03-19T16:29:45;2.19;110.74
67186;HTU21D;54116;53.518;49.398;2023-03-19T16:32:24;2.20;110.61
67186;HTU21D;54116;53.518;49.398;2023-03-19T16:34:54;2.20;110.78
67186;HTU21D;54116;53.518;49.398;2023-03-19T16:37:24;2.20;110.89
67186;HTU21D;54116;53.518;49.398;2023-03-19T16:39:56;2.19;110.87
67186;HTU21D;54116;53.518;49.398;2023-03-19T16:47:44;2.23;110.70
67186;HTU21D;54116;53.518;49.398;2023-03-19T16:50:12;2.24;110.90
67186;HTU21D;54116;53.518;49.398;2023-03-19T16:52:39;2.26;110.77
67186;HTU21D;54116;53.518;49.398;2023-03-19T16:57:40;2.24;110.72
67186;HTU21D;54116;53.518;49.398;2023-03-19T17:00:12;2.23;111.01
67186;HTU21D;54116;53.518;49.398;2023-03-19T17:02:39;2.25;110.68
67186;HTU21D;54116;53.518;49.398;2023-03-19T17:05:12;2.24;110.70
67186;HTU21D;54116;53.518;49.398;2023-03-19T17:07:39;2.22;111.03
67186;HTU21D;54116;53.518;49.398;2023-03-19T17:10:20;2.21;111.08
67186;HTU21D;54116;53.518;49.398;2023-03-19T17:12:49;2.22;111.20
67186;HTU21D;54116;53.518;49.398;2023-03-19T17:17:48;2.21;111.25
67186;HTU21D;54116;53.518;49.398;2023-03-19T17:20:23;2.21;111.07
67186;HTU21D;54116;53.518;49.398;2023-03-19T17:22:52;2.19;111.10
67186;HTU21D;54116;53.518;49.398;2023-03-19T17:25:19;2.20;111.11
67186;HTU21D;54116;53.518;49.398;2023-03-19T17:27:45;2.17;111.39
67186;HTU21D;54116;53.518;49.398;2023-03-19T17:30:12;2.17;111.29
67186;HTU21D;54116;53.518;49.398;2023-03-19T17:32:42;2.15;112.01
67186;HTU21D;54116;53.518;49.398;2023-03-19T17:35:13;2.14;111.57
67186;HTU21D;54116;53.518;49.398;2023-03-19T17:37:40;2.11;111.74
67186;HTU21D;54116;53.518;49.398;2023-03-19T17:40:26;2.12;111.80